Helas — C4AZ2 — position and weather

sailwx.info

Track history (hours):
 
Tides and Currents Weather Stations Pressure Air Temp Water Temp Dewpoint Dewpoint Depression Visibility Wind Speed Wind Dir Waves Ship Positions

Helas

Last reported at 2015-May-23 00:04 UTC. Time now 2015-May-30 12:38 UTC.
Position N 49°55' W 003°02'.

Length 89 m; draft 5.7 m.

Type: Cargo ship. MMSI: 210031000.

Date/timePositionNaut miles runAvg speedWind from/ knotsBaromVisibWave heightAir tempDewpointWater temp
2015-May-23 00:04N 49°55' W 003°02'13 7.9
2015-May-22 22:25N 50°01' W 002°44'120 9.3
2015-May-22 09:33N 50°35' E 000°17'9 9.3
2015-May-22 08:33N 50°38' E 000°30'1010.3
2015-May-22 07:33N 50°43' E 000°44'1010.5
2015-May-22 06:33N 50°49' E 000°58'11 9.7
2015-May-22 05:27N 50°56' E 001°11'8 8.6
2015-May-22 04:33N 51°01' E 001°21'7 7.3
2015-May-22 03:33N 51°05' E 001°29'6 6.2
2015-May-22 02:33N 51°09' E 001°37'7 6.7
2015-May-22 01:33N 51°14' E 001°45'8 8.4
2015-May-22 00:34N 51°21' E 001°52'1010.4
2015-May-21 23:33N 51°30' E 002°01'1111.3
2015-May-21 22:34N 51°38' E 002°13'1111.3
2015-May-21 21:33N 51°47' E 002°25'12 9.5
2015-May-21 20:17N 51°57' E 002°36'8 8.8
2015-May-21 19:26N 52°01' E 002°46'8 8.2
2015-May-21 18:31N 52°07' E 002°54'7 7.7
2015-May-21 17:33N 52°12' E 003°02'8 7.5
2015-May-21 16:32N 52°16' E 003°13'7 7.4
2015-May-21 15:32N 52°20' E 003°23'9 8.2
2015-May-21 14:30N 52°25' E 003°35'10 9.3
2015-May-21 13:22N 52°30' E 003°50'8 9.3
2015-May-21 12:33N 52°31' E 004°02'10 9.7
2015-May-21 11:33N 52°30' E 004°18'9 8.8
2015-May-21 10:33N 52°28' E 004°32'3 2.4
2015-May-21 09:24N 52°28' E 004°36'0 0.0
2015-May-21 08:33N 52°28' E 004°36'0 0.0
2015-May-21 07:33N 52°28' E 004°36'0 0.1
2015-May-21 06:33N 52°28' E 004°36'0 0.0
2015-May-21 05:33N 52°28' E 004°36'0 0.0
2015-May-21 04:33N 52°28' E 004°36'0 0.0
2015-May-21 03:33N 52°28' E 004°36'0 0.0
2015-May-21 02:33N 52°28' E 004°36'0 0.0
2015-May-21 01:33N 52°28' E 004°36'0 0.0
2015-May-21 00:33N 52°28' E 004°36'0 0.0
2015-May-20 23:33N 52°28' E 004°36'0 0.0
2015-May-20 22:33N 52°28' E 004°36'0 0.0
2015-May-20 21:33N 52°28' E 004°36'0 0.0
2015-May-20 20:33N 52°28' E 004°36'0 0.0
2015-May-20 19:33N 52°28' E 004°36'0 0.0
2015-May-20 18:30N 52°28' E 004°36'0 0.0
2015-May-20 17:32N 52°28' E 004°36'0 0.0
2015-May-20 16:32N 52°28' E 004°36'0 0.0
2015-May-20 15:32N 52°28' E 004°36'0 0.0
2015-May-20 14:32N 52°28' E 004°36'0 0.0
2015-May-20 13:29N 52°28' E 004°36'0 0.0
2015-May-20 12:26N 52°28' E 004°36'0 0.1
2015-May-20 11:32N 52°28' E 004°36'0 0.0
2015-May-20 10:32N 52°28' E 004°36'0 0.0
2015-May-20 09:29N 52°28' E 004°36'0 0.0
2015-May-20 08:32N 52°28' E 004°36'1 0.7
2015-May-20 07:33N 52°28' E 004°36'1 1.2
2015-May-20 06:29N 52°28' E 004°38'0 0.0
2015-May-20 05:23N 52°28' E 004°38'0 0.0
2015-May-20 04:20N 52°28' E 004°38'0 0.0
2015-May-20 03:20N 52°28' E 004°38'0 0.0
2015-May-20 02:20N 52°28' E 004°38'0 0.0
2015-May-20 01:20N 52°28' E 004°38'0 0.0
2015-May-20 00:20N 52°28' E 004°38'0 0.0
2015-May-19 23:32N 52°28' E 004°38'0 0.0
2015-May-19 22:20N 52°28' E 004°38'0 0.0
2015-May-19 21:20N 52°28' E 004°38'0 0.0
2015-May-19 20:05N 52°28' E 004°38'0 0.0
2015-May-19 19:32N 52°28' E 004°38'0 0.0
2015-May-19 18:20N 52°28' E 004°38'0 0.0
2015-May-19 17:32N 52°28' E 004°38'0 0.0
2015-May-19 16:32N 52°28' E 004°38'0 0.0
2015-May-19 15:32N 52°28' E 004°38'0 0.0
2015-May-19 14:32N 52°28' E 004°38'0 0.0
2015-May-19 13:31N 52°28' E 004°38'0 0.0
2015-May-19 12:31N 52°28' E 004°38'0 0.0
2015-May-19 11:31N 52°28' E 004°38'0 0.0
2015-May-19 10:28N 52°28' E 004°38'0 0.0
2015-May-19 09:28N 52°28' E 004°38'0 0.0
2015-May-19 08:31N 52°28' E 004°38'0 0.0
2015-May-19 07:28N 52°28' E 004°38'0 0.0
2015-May-19 06:25N 52°28' E 004°38'0 0.0
2015-May-19 05:22N 52°28' E 004°38'0 0.0
2015-May-19 04:22N 52°28' E 004°38'0 0.0
2015-May-19 03:31N 52°28' E 004°38'0 0.0
2015-May-19 02:31N 52°28' E 004°38'0 0.0
2015-May-19 01:31N 52°28' E 004°38'0 0.0
2015-May-19 00:31N 52°28' E 004°38'0 0.0
2015-May-18 23:28N 52°28' E 004°38'0 0.0
2015-May-18 22:31N 52°28' E 004°38'0 0.0
2015-May-18 21:19N 52°28' E 004°38'0 0.0
2015-May-18 20:31N 52°28' E 004°38'0 0.0
2015-May-18 19:31N 52°28' E 004°38'0 0.0
2015-May-18 18:31N 52°28' E 004°38'0 0.0
2015-May-18 17:10N 52°28' E 004°38'0 0.0
2015-May-18 15:10N 52°28' E 004°38'0 0.0
2015-May-18 14:13N 52°28' E 004°38'0 0.0
2015-May-18 13:22N 52°28' E 004°38'1 1.4
2015-May-18 12:33N 52°28' E 004°36'6 5.5
2015-May-18 11:33N 52°28' E 004°27'10 9.6
2015-May-18 10:33N 52°29' E 004°11'9 9.4
2015-May-18 09:33N 52°26' E 003°56'0 0.0
2015-May-18 07:30N 52°26' E 003°56'0 0.0
2015-May-18 06:21N 52°26' E 003°56'0 0.0
2015-May-18 05:33N 52°26' E 003°56'0 0.0
2015-May-18 04:24N 52°26' E 003°56'0 0.0
2015-May-18 03:24N 52°26' E 003°56'0 0.0
2015-May-18 02:33N 52°26' E 003°56'0 0.0
2015-May-18 01:27N 52°26' E 003°56'0 0.0
2015-May-18 00:27N 52°26' E 003°56'0 0.0
2015-May-17 23:24N 52°26' E 003°56'0 0.0
2015-May-17 22:27N 52°26' E 003°56'2 1.9
2015-May-17 21:32N 52°26' E 003°54'9 9.6
2015-May-17 20:33N 52°16' E 003°52'10 9.8
2015-May-17 19:33N 52°07' E 003°55'8 8.1
2015-May-17 18:33N 51°60' E 004°02'1211.8
2015-May-17 17:33N 51°53' E 004°17'1 0.8
2015-May-17 16:28N 51°53' E 004°16'0 0.0
2015-May-17 15:31N 51°53' E 004°16'0 0.0
2015-May-17 14:31N 51°53' E 004°16'0 0.0
2015-May-17 13:31N 51°53' E 004°16'0 0.0
2015-May-17 12:31N 51°53' E 004°16'0 0.0
2015-May-17 11:28N 51°53' E 004°16'0 0.0
2015-May-17 10:28N 51°53' E 004°16'0 0.0
2015-May-17 09:28N 51°53' E 004°16'0 0.0
2015-May-17 08:31N 51°53' E 004°16'0 0.0
2015-May-17 07:31N 51°53' E 004°16'0 0.0
2015-May-17 06:31N 51°53' E 004°16'0 0.0
2015-May-17 05:31N 51°53' E 004°16'0 0.0
2015-May-17 04:16N 51°53' E 004°16'0 0.0
2015-May-17 03:28N 51°53' E 004°16'0 0.0
2015-May-17 02:28N 51°53' E 004°16'0 0.0
2015-May-17 01:31N 51°53' E 004°16'1 0.9
2015-May-17 00:34N 51°54' E 004°17'10 9.9
2015-May-16 23:34N 51°59' E 004°04'10 9.6
2015-May-16 22:33N 51°59' E 003°48'4 4.3
2015-May-16 21:33N 51°57' E 003°43'0 0.0
2015-May-16 20:30N 51°57' E 003°43'0 0.0
2015-May-16 19:12N 51°57' E 003°43'0 0.0
2015-May-16 18:24N 51°57' E 003°43'0 0.0
2015-May-16 17:33N 51°57' E 003°43'0 0.1
2015-May-16 16:15N 51°57' E 003°43'0 0.1
2015-May-16 15:27N 51°57' E 003°43'0 0.0
2015-May-16 14:33N 51°57' E 003°43'0 0.0
2015-May-16 13:06N 51°57' E 003°43'0 0.0
2015-May-16 12:33N 51°57' E 003°43'0 0.0
2015-May-16 11:30N 51°57' E 003°43'0 0.0
2015-May-16 09:12N 51°57' E 003°43'0 0.0
2015-May-16 07:33N 51°57' E 003°43'0 0.0
2015-May-16 06:30N 51°57' E 003°43'0 0.1
2015-May-16 04:06N 51°57' E 003°43'0 0.0
2015-May-16 03:27N 51°57' E 003°43'0 0.0
2015-May-16 02:29N 51°57' E 003°43'5 4.9
2015-May-16 01:32N 51°57' E 003°35'7 6.7
2015-May-16 00:31N 51°55' E 003°25'1312.9
2015-May-15 23:29N 51°51' E 003°04'35 5.8
2015-May-15 17:32N 51°31' E 002°18'8 8.3
2015-May-15 16:33N 51°25' E 002°11'1 0.3
2015-May-15 14:19N 51°24' E 002°10'7 9.1
2015-May-15 13:34N 51°17' E 002°07'5 5.4
2015-May-15 12:33N 51°13' E 002°02'5 4.8
2015-May-15 11:33N 51°10' E 001°56'5 5.1
2015-May-15 10:33N 51°07' E 001°49'5 5.4
2015-May-15 09:33N 51°03' E 001°43'5 5.2
2015-May-15 08:33N 50°59' E 001°38'5 4.6
2015-May-15 07:33N 50°56' E 001°33'  
Track history (hours):
 
Tides and Currents Weather Stations Pressure Air Temp Water Temp Dewpoint Dewpoint Depression Visibility Wind Speed Wind Dir Waves Ship Positions

Helas

Last reported at 2015-May-23 00:04 UTC. Time now 2015-May-30 12:38 UTC.
Position N 49°55' W 003°02'.

Length 89 m; draft 5.7 m.

Type: Cargo ship. MMSI: 210031000.

Date/timePositionNaut miles runAvg speedWind from/ knotsBaromVisibWave heightAir tempDewpointWater temp
2015-May-23 00:04N 49°55' W 003°02'13 7.9
2015-May-22 22:25N 50°01' W 002°44'120 9.3
2015-May-22 09:33N 50°35' E 000°17'9 9.3
2015-May-22 08:33N 50°38' E 000°30'1010.3
2015-May-22 07:33N 50°43' E 000°44'1010.5
2015-May-22 06:33N 50°49' E 000°58'11 9.7
2015-May-22 05:27N 50°56' E 001°11'8 8.6
2015-May-22 04:33N 51°01' E 001°21'7 7.3
2015-May-22 03:33N 51°05' E 001°29'6 6.2
2015-May-22 02:33N 51°09' E 001°37'7 6.7
2015-May-22 01:33N 51°14' E 001°45'8 8.4
2015-May-22 00:34N 51°21' E 001°52'1010.4
2015-May-21 23:33N 51°30' E 002°01'1111.3
2015-May-21 22:34N 51°38' E 002°13'1111.3
2015-May-21 21:33N 51°47' E 002°25'12 9.5
2015-May-21 20:17N 51°57' E 002°36'8 8.8
2015-May-21 19:26N 52°01' E 002°46'8 8.2
2015-May-21 18:31N 52°07' E 002°54'7 7.7
2015-May-21 17:33N 52°12' E 003°02'8 7.5
2015-May-21 16:32N 52°16' E 003°13'7 7.4
2015-May-21 15:32N 52°20' E 003°23'9 8.2
2015-May-21 14:30N 52°25' E 003°35'10 9.3
2015-May-21 13:22N 52°30' E 003°50'8 9.3
2015-May-21 12:33N 52°31' E 004°02'10 9.7
2015-May-21 11:33N 52°30' E 004°18'9 8.8
2015-May-21 10:33N 52°28' E 004°32'3 2.4
2015-May-21 09:24N 52°28' E 004°36'0 0.0
2015-May-21 08:33N 52°28' E 004°36'0 0.0
2015-May-21 07:33N 52°28' E 004°36'0 0.1
2015-May-21 06:33N 52°28' E 004°36'0 0.0
2015-May-21 05:33N 52°28' E 004°36'0 0.0
2015-May-21 04:33N 52°28' E 004°36'0 0.0
2015-May-21 03:33N 52°28' E 004°36'0 0.0
2015-May-21 02:33N 52°28' E 004°36'0 0.0
2015-May-21 01:33N 52°28' E 004°36'0 0.0
2015-May-21 00:33N 52°28' E 004°36'0 0.0
2015-May-20 23:33N 52°28' E 004°36'0 0.0
2015-May-20 22:33N 52°28' E 004°36'0 0.0
2015-May-20 21:33N 52°28' E 004°36'0 0.0
2015-May-20 20:33N 52°28' E 004°36'0 0.0
2015-May-20 19:33N 52°28' E 004°36'0 0.0
2015-May-20 18:30N 52°28' E 004°36'0 0.0
2015-May-20 17:32N 52°28' E 004°36'0 0.0
2015-May-20 16:32N 52°28' E 004°36'0 0.0
2015-May-20 15:32N 52°28' E 004°36'0 0.0
2015-May-20 14:32N 52°28' E 004°36'0 0.0
2015-May-20 13:29N 52°28' E 004°36'0 0.0
2015-May-20 12:26N 52°28' E 004°36'0 0.1
2015-May-20 11:32N 52°28' E 004°36'0 0.0
2015-May-20 10:32N 52°28' E 004°36'0 0.0
2015-May-20 09:29N 52°28' E 004°36'0 0.0
2015-May-20 08:32N 52°28' E 004°36'1 0.7
2015-May-20 07:33N 52°28' E 004°36'1 1.2
2015-May-20 06:29N 52°28' E 004°38'0 0.0
2015-May-20 05:23N 52°28' E 004°38'0 0.0
2015-May-20 04:20N 52°28' E 004°38'0 0.0
2015-May-20 03:20N 52°28' E 004°38'0 0.0
2015-May-20 02:20N 52°28' E 004°38'0 0.0
2015-May-20 01:20N 52°28' E 004°38'0 0.0
2015-May-20 00:20N 52°28' E 004°38'0 0.0
2015-May-19 23:32N 52°28' E 004°38'0 0.0
2015-May-19 22:20N 52°28' E 004°38'0 0.0
2015-May-19 21:20N 52°28' E 004°38'0 0.0
2015-May-19 20:05N 52°28' E 004°38'0 0.0
2015-May-19 19:32N 52°28' E 004°38'0 0.0
2015-May-19 18:20N 52°28' E 004°38'0 0.0
2015-May-19 17:32N 52°28' E 004°38'0 0.0
2015-May-19 16:32N 52°28' E 004°38'0 0.0
2015-May-19 15:32N 52°28' E 004°38'0 0.0
2015-May-19 14:32N 52°28' E 004°38'0 0.0
2015-May-19 13:31N 52°28' E 004°38'0 0.0
2015-May-19 12:31N 52°28' E 004°38'0 0.0
2015-May-19 11:31N 52°28' E 004°38'0 0.0
2015-May-19 10:28N 52°28' E 004°38'0 0.0
2015-May-19 09:28N 52°28' E 004°38'0 0.0
2015-May-19 08:31N 52°28' E 004°38'0 0.0
2015-May-19 07:28N 52°28' E 004°38'0 0.0
2015-May-19 06:25N 52°28' E 004°38'0 0.0
2015-May-19 05:22N 52°28' E 004°38'0 0.0
2015-May-19 04:22N 52°28' E 004°38'0 0.0
2015-May-19 03:31N 52°28' E 004°38'0 0.0
2015-May-19 02:31N 52°28' E 004°38'0 0.0
2015-May-19 01:31N 52°28' E 004°38'0 0.0
2015-May-19 00:31N 52°28' E 004°38'0 0.0
2015-May-18 23:28N 52°28' E 004°38'0 0.0
2015-May-18 22:31N 52°28' E 004°38'0 0.0
2015-May-18 21:19N 52°28' E 004°38'0 0.0
2015-May-18 20:31N 52°28' E 004°38'0 0.0
2015-May-18 19:31N 52°28' E 004°38'0 0.0
2015-May-18 18:31N 52°28' E 004°38'0 0.0
2015-May-18 17:10N 52°28' E 004°38'0 0.0
2015-May-18 15:10N 52°28' E 004°38'0 0.0
2015-May-18 14:13N 52°28' E 004°38'0 0.0
2015-May-18 13:22N 52°28' E 004°38'1 1.4
2015-May-18 12:33N 52°28' E 004°36'6 5.5
2015-May-18 11:33N 52°28' E 004°27'10 9.6
2015-May-18 10:33N 52°29' E 004°11'9 9.4
2015-May-18 09:33N 52°26' E 003°56'0 0.0
2015-May-18 07:30N 52°26' E 003°56'0 0.0
2015-May-18 06:21N 52°26' E 003°56'0 0.0
2015-May-18 05:33N 52°26' E 003°56'0 0.0
2015-May-18 04:24N 52°26' E 003°56'0 0.0
2015-May-18 03:24N 52°26' E 003°56'0 0.0
2015-May-18 02:33N 52°26' E 003°56'0 0.0
2015-May-18 01:27N 52°26' E 003°56'0 0.0
2015-May-18 00:27N 52°26' E 003°56'0 0.0
2015-May-17 23:24N 52°26' E 003°56'0 0.0
2015-May-17 22:27N 52°26' E 003°56'2 1.9
2015-May-17 21:32N 52°26' E 003°54'9 9.6
2015-May-17 20:33N 52°16' E 003°52'10 9.8
2015-May-17 19:33N 52°07' E 003°55'8 8.1
2015-May-17 18:33N 51°60' E 004°02'1211.8
2015-May-17 17:33N 51°53' E 004°17'1 0.8
2015-May-17 16:28N 51°53' E 004°16'0 0.0
2015-May-17 15:31N 51°53' E 004°16'0 0.0
2015-May-17 14:31N 51°53' E 004°16'0 0.0
2015-May-17 13:31N 51°53' E 004°16'0 0.0
2015-May-17 12:31N 51°53' E 004°16'0 0.0
2015-May-17 11:28N 51°53' E 004°16'0 0.0
2015-May-17 10:28N 51°53' E 004°16'0 0.0
2015-May-17 09:28N 51°53' E 004°16'0 0.0
2015-May-17 08:31N 51°53' E 004°16'0 0.0
2015-May-17 07:31N 51°53' E 004°16'0 0.0
2015-May-17 06:31N 51°53' E 004°16'0 0.0
2015-May-17 05:31N 51°53' E 004°16'0 0.0
2015-May-17 04:16N 51°53' E 004°16'0 0.0
2015-May-17 03:28N 51°53' E 004°16'0 0.0
2015-May-17 02:28N 51°53' E 004°16'0 0.0
2015-May-17 01:31N 51°53' E 004°16'1 0.9
2015-May-17 00:34N 51°54' E 004°17'10 9.9
2015-May-16 23:34N 51°59' E 004°04'10 9.6
2015-May-16 22:33N 51°59' E 003°48'4 4.3
2015-May-16 21:33N 51°57' E 003°43'0 0.0
2015-May-16 20:30N 51°57' E 003°43'0 0.0
2015-May-16 19:12N 51°57' E 003°43'0 0.0
2015-May-16 18:24N 51°57' E 003°43'0 0.0
2015-May-16 17:33N 51°57' E 003°43'0 0.1
2015-May-16 16:15N 51°57' E 003°43'0 0.1
2015-May-16 15:27N 51°57' E 003°43'0 0.0
2015-May-16 14:33N 51°57' E 003°43'0 0.0
2015-May-16 13:06N 51°57' E 003°43'0 0.0
2015-May-16 12:33N 51°57' E 003°43'0 0.0
2015-May-16 11:30N 51°57' E 003°43'0 0.0
2015-May-16 09:12N 51°57' E 003°43'0 0.0
2015-May-16 07:33N 51°57' E 003°43'0 0.0
2015-May-16 06:30N 51°57' E 003°43'0 0.1
2015-May-16 04:06N 51°57' E 003°43'0 0.0
2015-May-16 03:27N 51°57' E 003°43'0 0.0
2015-May-16 02:29N 51°57' E 003°43'5 4.9
2015-May-16 01:32N 51°57' E 003°35'7 6.7
2015-May-16 00:31N 51°55' E 003°25'1312.9
2015-May-15 23:29N 51°51' E 003°04'35 5.8
2015-May-15 17:32N 51°31' E 002°18'8 8.3
2015-May-15 16:33N 51°25' E 002°11'1 0.3
2015-May-15 14:19N 51°24' E 002°10'7 9.1
2015-May-15 13:34N 51°17' E 002°07'5 5.4
2015-May-15 12:33N 51°13' E 002°02'5 4.8
2015-May-15 11:33N 51°10' E 001°56'5 5.1
2015-May-15 10:33N 51°07' E 001°49'5 5.4
2015-May-15 09:33N 51°03' E 001°43'5 5.2
2015-May-15 08:33N 50°59' E 001°38'5 4.6
2015-May-15 07:33N 50°56' E 001°33'  

Dump ship's entire track history